WZZ1694 UKLL-LZIB
Flight info
| Callsign | WZZ1694 |
|---|---|
| Flight time | 0h 56m |
| Altitude | 34000 |
| Route | KOKUP Q560 VI P27 MALBE A42 NIT |
| Aircraft | A321/M-SDE3FGHIRWY/LB1 |
Departure
| Time | 2026-04-29 17:49 |
|---|---|
| Airport | Lviv International Airport (UKLL) |
Arrival
| Time | 2026-04-29 18:45 |
|---|---|
| Airport | M. R. Štefánik Airport (LZIB) |
| Time | Latitude | Longitude | Altitude | Speed | Heading |
|---|---|---|---|---|---|
| 2026-04-29 17:20 | 49.81317 | 23.95833 | 1069 ft | 0 kts | 45° |
| 2026-04-29 17:26 | 49.81317 | 23.95832 | 1064 ft | 0 kts | 45° |
| 2026-04-29 17:30 | 49.81317 | 23.95833 | 1063 ft | 0 kts | 45° |
| 2026-04-29 17:30 | 49.81317 | 23.95832 | 1063 ft | 0 kts | 45° |
| 2026-04-29 17:40 | 49.81304 | 23.95811 | 1069 ft | 4 kts | 45° |
| 2026-04-29 17:40 | 49.81286 | 23.95783 | 1067 ft | 3 kts | 46° |
| 2026-04-29 17:41 | 49.81273 | 23.95754 | 1069 ft | 4 kts | 91° |
| 2026-04-29 17:41 | 49.81281 | 23.95719 | 1069 ft | 4 kts | 132° |
| 2026-04-29 17:41 | 49.81290 | 23.95706 | 1071 ft | 1 kts | 135° |
| 2026-04-29 17:41 | 49.81290 | 23.95705 | 1071 ft | 0 kts | 135° |
| 2026-04-29 17:43 | 49.81290 | 23.95706 | 1071 ft | 0 kts | 135° |
| 2026-04-29 17:43 | 49.81282 | 23.95718 | 1069 ft | 4 kts | 135° |
| 2026-04-29 17:44 | 49.81243 | 23.95779 | 1066 ft | 12 kts | 135° |
| 2026-04-29 17:44 | 49.81164 | 23.95899 | 1066 ft | 19 kts | 135° |
| 2026-04-29 17:44 | 49.81087 | 23.96012 | 1066 ft | 12 kts | 147° |
| 2026-04-29 17:44 | 49.81001 | 23.96033 | 1066 ft | 14 kts | 181° |
| 2026-04-29 17:45 | 49.80902 | 23.96031 | 1066 ft | 15 kts | 180° |
| 2026-04-29 17:45 | 49.80803 | 23.96096 | 1065 ft | 16 kts | 135° |
| 2026-04-29 17:45 | 49.80722 | 23.96216 | 1066 ft | 17 kts | 136° |
| 2026-04-29 17:45 | 49.80635 | 23.96350 | 1066 ft | 19 kts | 136° |
| 2026-04-29 17:46 | 49.80531 | 23.96507 | 1065 ft | 23 kts | 135° |
| 2026-04-29 17:46 | 49.80404 | 23.96695 | 1064 ft | 27 kts | 137° |
| 2026-04-29 17:46 | 49.80260 | 23.96911 | 1066 ft | 30 kts | 135° |
| 2026-04-29 17:46 | 49.80105 | 23.97145 | 1066 ft | 31 kts | 135° |
| 2026-04-29 17:47 | 49.80004 | 23.97299 | 1066 ft | 8 kts | 130° |
| 2026-04-29 17:47 | 49.79992 | 23.97385 | 1066 ft | 8 kts | 99° |
| 2026-04-29 17:47 | 49.79952 | 23.97449 | 1066 ft | 9 kts | 172° |
| 2026-04-29 17:47 | 49.79946 | 23.97384 | 1066 ft | 8 kts | 307° |
| 2026-04-29 17:48 | 49.79990 | 23.97314 | 1067 ft | 13 kts | 316° |
| 2026-04-29 17:48 | 49.80224 | 23.96966 | 1064 ft | 83 kts | 315° |
| 2026-04-29 17:48 | 49.80789 | 23.96113 | 1066 ft | 142 kts | 316° |
| 2026-04-29 17:48 | 49.81600 | 23.94899 | 1288 ft | 169 kts | 319° |
| 2026-04-29 17:49 | 49.82432 | 23.93662 | 2111 ft | 166 kts | 320° |
| 2026-04-29 17:49 | 49.83277 | 23.92446 | 2831 ft | 166 kts | 322° |
| 2026-04-29 17:49 | 49.84164 | 23.91221 | 3171 ft | 183 kts | 322° |
| 2026-04-29 17:49 | 49.85188 | 23.89810 | 3414 ft | 206 kts | 321° |
| 2026-04-29 17:50 | 49.86300 | 23.88262 | 3603 ft | 230 kts | 320° |
| 2026-04-29 17:50 | 49.87269 | 23.86148 | 4016 ft | 253 kts | 291° |
| 2026-04-29 17:50 | 49.87391 | 23.83385 | 4730 ft | 266 kts | 257° |
| 2026-04-29 17:50 | 49.86470 | 23.80889 | 5483 ft | 275 kts | 222° |
| 2026-04-29 17:51 | 49.84792 | 23.79488 | 6263 ft | 278 kts | 198° |
| 2026-04-29 17:51 | 49.82937 | 23.78603 | 7085 ft | 279 kts | 195° |
| 2026-04-29 17:51 | 49.81054 | 23.77810 | 7899 ft | 281 kts | 195° |
| 2026-04-29 17:51 | 49.79156 | 23.77031 | 8709 ft | 283 kts | 195° |
| 2026-04-29 17:52 | 49.77249 | 23.76239 | 9528 ft | 285 kts | 195° |
| 2026-04-29 17:52 | 49.75981 | 23.75702 | 10079 ft | 286 kts | 196° |
| 2026-04-29 17:52 | 49.73317 | 23.74550 | 10528 ft | 312 kts | 196° |
| 2026-04-29 17:52 | 49.71154 | 23.73599 | 10743 ft | 332 kts | 197° |
| 2026-04-29 17:53 | 49.68902 | 23.72603 | 11282 ft | 340 kts | 197° |
| 2026-04-29 17:53 | 49.66610 | 23.71589 | 11930 ft | 345 kts | 197° |
| 2026-04-29 17:53 | 49.64288 | 23.70562 | 12604 ft | 349 kts | 197° |
| 2026-04-29 17:53 | 49.61965 | 23.69535 | 13273 ft | 352 kts | 197° |
| 2026-04-29 17:54 | 49.59592 | 23.68486 | 13958 ft | 356 kts | 197° |
| 2026-04-29 17:54 | 49.57190 | 23.67429 | 14575 ft | 360 kts | 197° |
| 2026-04-29 17:54 | 49.54771 | 23.66360 | 15197 ft | 363 kts | 199° |
| 2026-04-29 17:54 | 49.52423 | 23.64898 | 15824 ft | 365 kts | 210° |
| 2026-04-29 17:55 | 49.50265 | 23.62827 | 16462 ft | 366 kts | 217° |
| 2026-04-29 17:55 | 49.48876 | 23.61349 | 16901 ft | 367 kts | 217° |
| 2026-04-29 17:55 | 49.46763 | 23.59103 | 17549 ft | 370 kts | 217° |
| 2026-04-29 17:55 | 49.43934 | 23.56114 | 18437 ft | 373 kts | 217° |
| 2026-04-29 17:56 | 49.41779 | 23.53850 | 19027 ft | 376 kts | 217° |
| 2026-04-29 17:56 | 49.40311 | 23.52313 | 19404 ft | 378 kts | 218° |
| 2026-04-29 17:56 | 49.38128 | 23.50026 | 19961 ft | 381 kts | 218° |
| 2026-04-29 17:56 | 49.35937 | 23.47730 | 20518 ft | 383 kts | 218° |
| 2026-04-29 17:57 | 49.33753 | 23.45441 | 21069 ft | 386 kts | 218° |
| 2026-04-29 17:57 | 49.31529 | 23.43112 | 21627 ft | 389 kts | 219° |
| 2026-04-29 17:57 | 49.29286 | 23.40767 | 22180 ft | 391 kts | 219° |
| 2026-04-29 17:57 | 49.27027 | 23.38412 | 22715 ft | 393 kts | 219° |
| 2026-04-29 17:58 | 49.24755 | 23.36047 | 23233 ft | 396 kts | 219° |
| 2026-04-29 17:58 | 49.22474 | 23.33671 | 23755 ft | 398 kts | 220° |
| 2026-04-29 17:58 | 49.20175 | 23.31278 | 24192 ft | 400 kts | 220° |
| 2026-04-29 17:58 | 49.17863 | 23.28879 | 24584 ft | 402 kts | 220° |
| 2026-04-29 17:59 | 49.15546 | 23.26476 | 24999 ft | 404 kts | 220° |
| 2026-04-29 17:59 | 49.13220 | 23.24060 | 25414 ft | 405 kts | 220° |
| 2026-04-29 17:59 | 49.10875 | 23.21633 | 25826 ft | 407 kts | 221° |
| 2026-04-29 17:59 | 49.08521 | 23.19203 | 26230 ft | 409 kts | 221° |
| 2026-04-29 18:00 | 49.06153 | 23.16766 | 26605 ft | 411 kts | 221° |
| 2026-04-29 18:00 | 49.03796 | 23.14351 | 26971 ft | 413 kts | 221° |
| 2026-04-29 18:00 | 49.01401 | 23.11906 | 27336 ft | 415 kts | 221° |
| 2026-04-29 18:00 | 48.98996 | 23.09444 | 27702 ft | 416 kts | 222° |
| 2026-04-29 18:01 | 48.96781 | 23.06662 | 28043 ft | 409 kts | 232° |
| 2026-04-29 18:01 | 48.94954 | 23.03376 | 28370 ft | 403 kts | 242° |
| 2026-04-29 18:01 | 48.93554 | 22.99721 | 28695 ft | 398 kts | 250° |
| 2026-04-29 18:01 | 48.92589 | 22.95791 | 28999 ft | 395 kts | 259° |
| 2026-04-29 18:02 | 48.91910 | 22.91787 | 29283 ft | 397 kts | 259° |
| 2026-04-29 18:02 | 48.91215 | 22.87715 | 29569 ft | 399 kts | 259° |
| 2026-04-29 18:02 | 48.90506 | 22.83613 | 29882 ft | 402 kts | 259° |
| 2026-04-29 18:02 | 48.89789 | 22.79501 | 30183 ft | 404 kts | 259° |
| 2026-04-29 18:03 | 48.89064 | 22.75357 | 30461 ft | 407 kts | 259° |
| 2026-04-29 18:03 | 48.88333 | 22.71190 | 30697 ft | 409 kts | 259° |
| 2026-04-29 18:03 | 48.87596 | 22.67004 | 30956 ft | 411 kts | 259° |
| 2026-04-29 18:03 | 48.86861 | 22.62813 | 31268 ft | 411 kts | 259° |
| 2026-04-29 18:04 | 48.86124 | 22.58603 | 31570 ft | 411 kts | 259° |
| 2026-04-29 18:04 | 48.85384 | 22.54392 | 31853 ft | 412 kts | 258° |
| 2026-04-29 18:04 | 48.84642 | 22.50182 | 32152 ft | 413 kts | 258° |
| 2026-04-29 18:04 | 48.83894 | 22.45963 | 32451 ft | 413 kts | 258° |
| 2026-04-29 18:05 | 48.83144 | 22.41757 | 32740 ft | 414 kts | 258° |
| 2026-04-29 18:05 | 48.82392 | 22.37537 | 33031 ft | 414 kts | 258° |
| 2026-04-29 18:05 | 48.81745 | 22.33335 | 33320 ft | 413 kts | 261° |
| 2026-04-29 18:05 | 48.81208 | 22.29061 | 33606 ft | 413 kts | 262° |
| 2026-04-29 18:06 | 48.80732 | 22.24760 | 33875 ft | 413 kts | 263° |
| 2026-04-29 18:06 | 48.80271 | 22.20447 | 34137 ft | 414 kts | 263° |
| 2026-04-29 18:06 | 48.79814 | 22.16125 | 34269 ft | 415 kts | 263° |
| 2026-04-29 18:07 | 48.78924 | 22.07547 | 34293 ft | 410 kts | 263° |
| 2026-04-29 18:07 | 48.78030 | 21.99011 | 34295 ft | 410 kts | 263° |
| 2026-04-29 18:08 | 48.77124 | 21.90482 | 34297 ft | 410 kts | 263° |
| 2026-04-29 18:08 | 48.76206 | 21.81952 | 34293 ft | 410 kts | 263° |
| 2026-04-29 18:09 | 48.75283 | 21.73415 | 34293 ft | 410 kts | 263° |
| 2026-04-29 18:09 | 48.74363 | 21.64943 | 34297 ft | 411 kts | 263° |
| 2026-04-29 18:10 | 48.73427 | 21.56399 | 34294 ft | 411 kts | 263° |
| 2026-04-29 18:10 | 48.72487 | 21.47852 | 34299 ft | 412 kts | 263° |
| 2026-04-29 18:11 | 48.71534 | 21.39309 | 34301 ft | 412 kts | 263° |
| 2026-04-29 18:11 | 48.70567 | 21.30737 | 34303 ft | 412 kts | 263° |
| 2026-04-29 18:12 | 48.69596 | 21.22166 | 34306 ft | 413 kts | 263° |
| 2026-04-29 18:12 | 48.68628 | 21.13640 | 34310 ft | 413 kts | 263° |
| 2026-04-29 18:13 | 48.67653 | 21.05065 | 34305 ft | 413 kts | 263° |
| 2026-04-29 18:13 | 48.66669 | 20.96501 | 34300 ft | 413 kts | 263° |
| 2026-04-29 18:14 | 48.65677 | 20.87942 | 34293 ft | 413 kts | 263° |
| 2026-04-29 18:14 | 48.64671 | 20.79378 | 34283 ft | 414 kts | 263° |
| 2026-04-29 18:15 | 48.63665 | 20.70808 | 34276 ft | 414 kts | 263° |
| 2026-04-29 18:15 | 48.62653 | 20.62224 | 34270 ft | 415 kts | 263° |
| 2026-04-29 18:16 | 48.61631 | 20.53634 | 34264 ft | 415 kts | 263° |
| 2026-04-29 18:16 | 48.60602 | 20.45099 | 34260 ft | 416 kts | 263° |
| 2026-04-29 18:17 | 48.59563 | 20.36489 | 34258 ft | 416 kts | 263° |
| 2026-04-29 18:17 | 48.58524 | 20.27877 | 34261 ft | 416 kts | 263° |
| 2026-04-29 18:18 | 48.57480 | 20.19268 | 34256 ft | 417 kts | 263° |
| 2026-04-29 18:18 | 48.56416 | 20.10665 | 34261 ft | 417 kts | 263° |
| 2026-04-29 18:19 | 48.55349 | 20.02106 | 34259 ft | 417 kts | 263° |
| 2026-04-29 18:19 | 48.54203 | 19.93541 | 33756 ft | 414 kts | 259° |
| 2026-04-29 18:19 | 48.53450 | 19.89351 | 33281 ft | 411 kts | 258° |
| 2026-04-29 18:20 | 48.52659 | 19.85233 | 32830 ft | 406 kts | 258° |
| 2026-04-29 18:20 | 48.51848 | 19.81167 | 32377 ft | 402 kts | 257° |
| 2026-04-29 18:20 | 48.51034 | 19.77135 | 31923 ft | 398 kts | 258° |
| 2026-04-29 18:20 | 48.50235 | 19.73163 | 31480 ft | 394 kts | 258° |
| 2026-04-29 18:21 | 48.49461 | 19.69278 | 31051 ft | 389 kts | 258° |
| 2026-04-29 18:21 | 48.48690 | 19.65383 | 30608 ft | 384 kts | 258° |
| 2026-04-29 18:21 | 48.47935 | 19.61544 | 30159 ft | 380 kts | 258° |
| 2026-04-29 18:21 | 48.47191 | 19.57749 | 29706 ft | 374 kts | 258° |
| 2026-04-29 18:22 | 48.46461 | 19.54027 | 29304 ft | 368 kts | 259° |
| 2026-04-29 18:22 | 48.45739 | 19.50364 | 28915 ft | 361 kts | 258° |
| 2026-04-29 18:22 | 48.45026 | 19.46771 | 28529 ft | 355 kts | 258° |
| 2026-04-29 18:22 | 48.44323 | 19.43238 | 28153 ft | 349 kts | 258° |
| 2026-04-29 18:23 | 48.43631 | 19.39753 | 27797 ft | 344 kts | 259° |
| 2026-04-29 18:23 | 48.42950 | 19.36323 | 27439 ft | 339 kts | 259° |
| 2026-04-29 18:23 | 48.42276 | 19.32939 | 27096 ft | 335 kts | 259° |
| 2026-04-29 18:23 | 48.41619 | 19.29643 | 26760 ft | 331 kts | 259° |
| 2026-04-29 18:24 | 48.40962 | 19.26346 | 26429 ft | 326 kts | 259° |
| 2026-04-29 18:24 | 48.40312 | 19.23101 | 26096 ft | 322 kts | 259° |
| 2026-04-29 18:24 | 48.39666 | 19.19887 | 25755 ft | 319 kts | 259° |
| 2026-04-29 18:24 | 48.39027 | 19.16715 | 25423 ft | 315 kts | 259° |
| 2026-04-29 18:25 | 48.38394 | 19.13586 | 25092 ft | 311 kts | 259° |
| 2026-04-29 18:25 | 48.37770 | 19.10488 | 24754 ft | 307 kts | 259° |
| 2026-04-29 18:25 | 48.37154 | 19.07439 | 24430 ft | 303 kts | 259° |
| 2026-04-29 18:25 | 48.36543 | 19.04421 | 24097 ft | 299 kts | 259° |
| 2026-04-29 18:26 | 48.35940 | 19.01441 | 23748 ft | 296 kts | 259° |
| 2026-04-29 18:26 | 48.35353 | 18.98546 | 23397 ft | 291 kts | 259° |
| 2026-04-29 18:26 | 48.34763 | 18.95655 | 23054 ft | 286 kts | 259° |
| 2026-04-29 18:26 | 48.34182 | 18.92798 | 22724 ft | 286 kts | 259° |
| 2026-04-29 18:27 | 48.33601 | 18.89939 | 22399 ft | 285 kts | 259° |
| 2026-04-29 18:27 | 48.33022 | 18.87096 | 22066 ft | 284 kts | 259° |
| 2026-04-29 18:27 | 48.32442 | 18.84255 | 21729 ft | 284 kts | 259° |
| 2026-04-29 18:27 | 48.31863 | 18.81415 | 21399 ft | 284 kts | 259° |
| 2026-04-29 18:28 | 48.31284 | 18.78588 | 21068 ft | 283 kts | 259° |
| 2026-04-29 18:28 | 48.30711 | 18.75793 | 20731 ft | 283 kts | 259° |
| 2026-04-29 18:28 | 48.30132 | 18.72975 | 20398 ft | 282 kts | 259° |
| 2026-04-29 18:28 | 48.29553 | 18.70162 | 20061 ft | 282 kts | 259° |
| 2026-04-29 18:29 | 48.28972 | 18.67349 | 19734 ft | 282 kts | 259° |
| 2026-04-29 18:29 | 48.28580 | 18.65450 | 19503 ft | 282 kts | 259° |
| 2026-04-29 18:29 | 48.27810 | 18.61735 | 19061 ft | 281 kts | 259° |
| 2026-04-29 18:29 | 48.27228 | 18.58933 | 18724 ft | 281 kts | 259° |
| 2026-04-29 18:30 | 48.26647 | 18.56133 | 18360 ft | 281 kts | 258° |
| 2026-04-29 18:30 | 48.26066 | 18.53341 | 18011 ft | 280 kts | 258° |
| 2026-04-29 18:30 | 48.25485 | 18.50548 | 17673 ft | 280 kts | 258° |
| 2026-04-29 18:30 | 48.24906 | 18.47759 | 17340 ft | 280 kts | 258° |
| 2026-04-29 18:31 | 48.24325 | 18.44973 | 17009 ft | 279 kts | 258° |
| 2026-04-29 18:31 | 48.23746 | 18.42200 | 16669 ft | 279 kts | 258° |
| 2026-04-29 18:31 | 48.23169 | 18.39437 | 16336 ft | 278 kts | 258° |
| 2026-04-29 18:31 | 48.22588 | 18.36658 | 15997 ft | 278 kts | 258° |
| 2026-04-29 18:32 | 48.22010 | 18.33899 | 15662 ft | 277 kts | 258° |
| 2026-04-29 18:32 | 48.20857 | 18.28396 | 15001 ft | 276 kts | 257° |
| 2026-04-29 18:32 | 48.20278 | 18.25657 | 14664 ft | 275 kts | 257° |
| 2026-04-29 18:33 | 48.19699 | 18.22921 | 14335 ft | 275 kts | 257° |
| 2026-04-29 18:33 | 48.19121 | 18.20192 | 14000 ft | 274 kts | 257° |
| 2026-04-29 18:33 | 48.18542 | 18.17442 | 13425 ft | 280 kts | 257° |
| 2026-04-29 18:33 | 48.17956 | 18.14668 | 13051 ft | 278 kts | 256° |
| 2026-04-29 18:34 | 48.17372 | 18.11923 | 12717 ft | 275 kts | 256° |
| 2026-04-29 18:34 | 48.16988 | 18.10117 | 12493 ft | 274 kts | 256° |
| 2026-04-29 18:34 | 48.16226 | 18.06530 | 12061 ft | 272 kts | 256° |
| 2026-04-29 18:34 | 48.15645 | 18.03796 | 11728 ft | 272 kts | 256° |
| 2026-04-29 18:35 | 48.15079 | 18.01136 | 11410 ft | 271 kts | 256° |
| 2026-04-29 18:35 | 48.14506 | 17.98452 | 11083 ft | 270 kts | 256° |
| 2026-04-29 18:35 | 48.13933 | 17.95773 | 10763 ft | 270 kts | 255° |
| 2026-04-29 18:35 | 48.13358 | 17.93094 | 10445 ft | 270 kts | 255° |
| 2026-04-29 18:36 | 48.12784 | 17.90425 | 10112 ft | 269 kts | 255° |
| 2026-04-29 18:36 | 48.12202 | 17.87715 | 10018 ft | 279 kts | 255° |
| 2026-04-29 18:36 | 48.11605 | 17.84927 | 9689 ft | 285 kts | 255° |
| 2026-04-29 18:36 | 48.10997 | 17.82101 | 9287 ft | 284 kts | 255° |
| 2026-04-29 18:37 | 48.10392 | 17.79294 | 8782 ft | 282 kts | 255° |
| 2026-04-29 18:37 | 48.09793 | 17.76512 | 8262 ft | 279 kts | 255° |
| 2026-04-29 18:37 | 48.09202 | 17.73768 | 7802 ft | 276 kts | 255° |
| 2026-04-29 18:37 | 48.08635 | 17.71148 | 7370 ft | 275 kts | 255° |
| 2026-04-29 18:38 | 48.08041 | 17.68409 | 6933 ft | 278 kts | 255° |
| 2026-04-29 18:38 | 48.07444 | 17.65658 | 6543 ft | 277 kts | 255° |
| 2026-04-29 18:38 | 48.06844 | 17.62892 | 6089 ft | 280 kts | 255° |
| 2026-04-29 18:38 | 48.06244 | 17.60121 | 5602 ft | 282 kts | 255° |
| 2026-04-29 18:39 | 48.05645 | 17.57360 | 5341 ft | 277 kts | 255° |
| 2026-04-29 18:39 | 48.05044 | 17.54617 | 4956 ft | 278 kts | 255° |
| 2026-04-29 18:39 | 48.04443 | 17.51881 | 4420 ft | 275 kts | 254° |
| 2026-04-29 18:39 | 48.03846 | 17.49169 | 3761 ft | 273 kts | 255° |
| 2026-04-29 18:40 | 48.03319 | 17.46541 | 3552 ft | 250 kts | 265° |
| 2026-04-29 18:40 | 48.03320 | 17.44104 | 3518 ft | 223 kts | 286° |
| 2026-04-29 18:40 | 48.03806 | 17.42025 | 3416 ft | 203 kts | 305° |
| 2026-04-29 18:40 | 48.04613 | 17.40425 | 3331 ft | 185 kts | 321° |
| 2026-04-29 18:41 | 48.07241 | 17.36378 | 2919 ft | 178 kts | 321° |
| 2026-04-29 18:41 | 48.08098 | 17.35056 | 2678 ft | 176 kts | 321° |
| 2026-04-29 18:42 | 48.08949 | 17.33742 | 2443 ft | 175 kts | 321° |
| 2026-04-29 18:42 | 48.09758 | 17.32488 | 2215 ft | 160 kts | 322° |
| 2026-04-29 18:42 | 48.10500 | 17.31339 | 2016 ft | 147 kts | 323° |
| 2026-04-29 18:42 | 48.11194 | 17.30268 | 1793 ft | 141 kts | 322° |
| 2026-04-29 18:43 | 48.11646 | 17.29572 | 1673 ft | 140 kts | 321° |
| 2026-04-29 18:43 | 48.12319 | 17.28533 | 1480 ft | 138 kts | 321° |
| 2026-04-29 18:43 | 48.12985 | 17.27506 | 1289 ft | 137 kts | 320° |
| 2026-04-29 18:43 | 48.13862 | 17.26154 | 1011 ft | 136 kts | 319° |
| 2026-04-29 18:44 | 48.14514 | 17.25127 | 834 ft | 136 kts | 319° |
| 2026-04-29 18:44 | 48.14961 | 17.24442 | 700 ft | 136 kts | 320° |
| 2026-04-29 18:44 | 48.15616 | 17.23424 | 507 ft | 136 kts | 319° |
| 2026-04-29 18:44 | 48.16255 | 17.22445 | 426 ft | 118 kts | 316° |
| 2026-04-29 18:45 | 48.16700 | 17.21749 | 424 ft | 69 kts | 314° |
| 2026-04-29 18:45 | 48.16950 | 17.21359 | 426 ft | 44 kts | 314° |
| 2026-04-29 18:45 | 48.17090 | 17.21141 | 426 ft | 21 kts | 314° |
| 2026-04-29 18:45 | 48.17135 | 17.21058 | 422 ft | 9 kts | 284° |
| 2026-04-29 18:46 | 48.17103 | 17.20981 | 426 ft | 7 kts | 226° |
| 2026-04-29 18:46 | 48.17088 | 17.20958 | 426 ft | 0 kts | 225° |
| 2026-04-29 18:46 | 48.17086 | 17.20955 | 427 ft | 1 kts | 225° |
| 2026-04-29 18:46 | 48.17080 | 17.20946 | 427 ft | 1 kts | 226° |
| 2026-04-29 18:47 | 48.17074 | 17.20937 | 428 ft | 1 kts | 225° |
| 2026-04-29 18:47 | 48.17065 | 17.20924 | 423 ft | 3 kts | 225° |
| 2026-04-29 18:47 | 48.17042 | 17.20887 | 426 ft | 6 kts | 228° |
| 2026-04-29 18:47 | 48.17051 | 17.20832 | 417 ft | 7 kts | 305° |
| 2026-04-29 18:48 | 48.17093 | 17.20761 | 424 ft | 11 kts | 312° |
| 2026-04-29 18:48 | 48.17146 | 17.20675 | 420 ft | 9 kts | 313° |
| 2026-04-29 18:48 | 48.17162 | 17.20593 | 428 ft | 5 kts | 259° |
| 2026-04-29 18:48 | 48.17143 | 17.20541 | 418 ft | 6 kts | 231° |
| 2026-04-29 18:49 | 48.17109 | 17.20490 | 426 ft | 8 kts | 223° |
| 2026-04-29 18:49 | 48.17068 | 17.20432 | 422 ft | 9 kts | 224° |
| 2026-04-29 18:49 | 48.17034 | 17.20383 | 428 ft | 5 kts | 226° |
| 2026-04-29 18:49 | 48.17041 | 17.20334 | 425 ft | 6 kts | 304° |
| 2026-04-29 18:50 | 48.17059 | 17.20305 | 424 ft | 2 kts | 313° |
| 2026-04-29 18:50 | 48.17063 | 17.20299 | 418 ft | 0 kts | 313° |